Latest Weather Observations for Fortescue Dave Forrest

IDW60801

Issued at 7:04 pm WST Saturday 25 February 2017 (issued every 30 minutes, with the page automatically refreshed every 10 minutes)

About weather observations | Map of weather stations | Latest weather observations for WA | Other Formats
Station Details ID: 505056 Name: FORTESCUE DAVE FORREST Lat: -22.29 Lon: 119.43 Height: 474.6 m
Data from the previous 72 hours. | See also: Recent months for locations in Western Australia
Date/Time
WST
Temp
°C
App
Temp
°C
Dew
Point
°C
Rel
Hum
%
Delta-T
°C
Wind Press
QNH
hPa
Press
MSL
hPa
Rain since
9am
mm
Dir  Spd
km/h
Gust
km/h
Spd
kts
Gust
kts
25/07:00pm 32.3 30.2 9.8 25 13.1 ESE 11 15 6 8 1012.6 1008.7 0.0
25/06:30pm 33.8 31.1 9.1 22 14.3 SE 13 22 7 12 1012.2 1008.3 0.0
25/06:00pm 35.3 31.3 8.2 19 15.6 SE 19 30 10 16 1012.0 1008.1 0.0
25/05:30pm 36.0 32.9 8.7 19 15.9 SE 15 28 8 15 1011.7 1007.8 0.0
25/05:00pm 36.7 32.6 8.5 18 16.4 SE 20 33 11 18 1011.7 1007.8 0.0
25/04:30pm 37.1 32.5 8.0 17 16.8 SE 22 33 12 18 1011.8 1007.9 0.0
25/04:00pm 37.5 33.7 7.4 16 17.3 ESE 17 22 9 12 1011.9 1008.0 0.0
25/03:30pm 37.2 32.6 6.3 15 17.4 E 20 37 11 20 1012.2 1008.3 0.0
25/03:00pm 37.7 33.3 7.6 16 17.3 ESE 20 30 11 16 1012.5 1008.6 0.0
25/02:30pm 37.6 33.6 8.4 17 17.0 ESE 19 32 10 17 1013.0 1009.1 0.0
25/02:00pm 37.2 32.0 7.2 16 17.1 ENE 24 35 13 19 1013.5 1009.6 0.0
25/01:30pm 37.6 32.8 7.5 16 17.3 E 22 32 12 17 1013.9 1010.0 0.0
25/01:00pm 37.2 32.2 8.1 17 16.8 ENE 24 37 13 20 1014.3 1010.4 0.0
25/12:30pm 36.4 30.9 7.4 17 16.5 E 26 37 14 20 1014.6 1010.7 0.0
25/12:00pm 37.0 31.2 7.9 17 16.8 ENE 28 43 15 23 1014.9 1011.0 0.0
25/11:30am 36.1 30.3 8.0 18 16.2 ENE 28 39 15 21 1015.4 1011.6 0.0
25/11:00am 36.0 30.4 8.7 19 15.8 E 28 41 15 22 1015.8 1011.9 0.0
25/10:30am 35.3 28.8 8.2 19 15.6 E 32 43 17 23 1016.0 1012.1 0.0
25/10:00am 34.2 28.2 8.8 21 14.6 E 30 39 16 21 1016.2 1012.3 0.0
25/09:30am 33.6 27.1 8.3 21 14.4 E 32 44 17 24 1016.5 1012.6 0.0
25/09:00am 32.5 26.8 9.9 25 13.2 E 30 41 16 22 1016.6 1012.7 -
25/08:30am 31.5 26.9 9.7 26 12.6 E 24 33 13 18 1016.4 1012.5 -
25/08:00am 30.3 26.3 10.3 29 11.6 E 22 30 12 16 1016.2 1012.3 -
25/07:30am 28.8 25.3 10.9 33 10.4 E 20 26 11 14 1016.1 1012.2 -
25/07:00am 27.7 24.4 11.7 37 9.4 ESE 20 28 11 15 1016.0 1012.1 -
25/06:30am 24.9 23.5 13.5 49 6.8 ESE 13 19 7 10 1015.7 1011.8 -
25/06:00am 23.1 23.2 14.4 58 5.2 SE 7 11 4 6 1015.2 1011.4 -
25/05:30am 23.5 23.9 14.8 58 5.3 ESE 6 7 3 4 1014.8 1010.9 -
25/05:00am 24.4 24.5 14.5 54 6.0 SE 7 9 4 5 1014.5 1010.6 -
25/04:30am 24.7 24.7 15.1 55 5.9 SE 9 13 5 7 1014.2 1010.3 -
25/04:00am 24.9 25.4 15.5 56 5.8 SE 7 11 4 6 1014.0 1010.1 -
25/03:30am 25.4 25.5 16.5 58 5.6 SE 11 15 6 8 1014.0 1010.1 -
25/03:00am 26.3 26.4 13.8 46 7.5 SSE 6 9 3 5 1013.7 1009.8 0.0
25/02:30am 26.8 26.1 13.2 43 8.1 ESE 9 13 5 7 1013.8 1009.9 -
25/02:00am 26.1 26.6 14.9 50 6.9 E 6 11 3 6 1013.9 1010.0 -
25/01:30am 26.5 27.7 15.8 51 6.7 E 4 6 2 3 1014.0 1010.1 -
25/01:00am 27.7 27.5 12.9 40 8.9 ESE 6 7 3 4 1014.3 1010.4 -
25/12:30am 28.3 29.1 14.9 44 8.3 E 4 7 2 4 1014.6 1010.7 -
25/12:00am 28.0 28.9 15.0 45 8.0 E 4 7 2 4 1014.9 1011.0 -
 
Date/Time
WST
Temp
°C
App
Temp
°C
Dew
Point
°C
Rel
Hum
%
Delta-T
°C
Wind Press
QNH
hPa
Press
MSL
hPa
Rain since
9am
mm
Dir  Spd
km/h
Gust
km/h
Spd
kts
Gust
kts
24/11:30pm 27.6 28.1 12.8 40 8.8 SE 2 4 1 2 1014.9 1011.0 -
24/11:00pm 28.0 29.5 15.6 46 7.7 SE 2 4 1 2 1015.0 1011.1 -
24/10:30pm 28.8 28.5 12.7 37 9.6 ESE 6 6 3 3 1015.1 1011.3 -
24/10:00pm 29.6 29.2 12.9 35 10.1 SE 7 11 4 6 1015.1 1011.3 -
24/09:30pm 29.1 28.9 12.9 37 9.7 ESE 6 6 3 3 1015.2 1011.4 -
24/09:00pm 29.9 29.4 11.9 33 10.7 ESE 6 6 3 3 1015.1 1011.3 -
24/08:30pm 30.3 29.7 11.8 32 11.0 ESE 6 6 3 3 1015.0 1011.1 -
24/08:00pm 30.5 30.1 12.4 33 10.9 ESE 6 9 3 5 1014.8 1010.9 -
24/07:30pm 30.7 30.5 13.5 35 10.5 ESE 7 11 4 6 1014.5 1010.6 -
24/07:00pm 32.1 32.0 13.3 31 11.5 E 6 9 3 5 1014.1 1010.2 -
24/06:30pm 34.0 32.5 11.8 26 13.4 E 11 15 6 8 1013.8 1009.9 -
24/06:00pm 35.8 34.2 10.1 21 15.2 E 9 17 5 9 1013.5 1009.6 -
24/05:30pm 36.7 32.6 8.5 18 16.4 ENE 20 26 11 14 1013.3 1009.5 -
24/05:00pm 37.6 34.4 10.0 19 16.4 E 17 28 9 15 1013.3 1009.5 0.0
24/04:30pm 37.5 33.8 10.0 19 16.4 E 20 30 11 16 1013.2 1009.4 0.0
24/04:00pm 38.0 34.1 9.6 18 16.9 ESE 20 30 11 16 1013.2 1009.4 0.0
24/03:30pm 37.9 34.0 8.6 17 17.1 E 19 32 10 17 1013.3 1009.5 0.0
24/03:00pm 37.8 33.5 9.4 18 16.8 ESE 22 37 12 20 1013.6 1009.7 0.0
24/02:30pm 37.9 34.4 10.3 19 16.5 ESE 19 32 10 17 1013.8 1009.9 0.0
24/02:00pm 37.0 33.8 11.1 21 15.6 ESE 19 30 10 16 1014.2 1010.3 0.0
24/01:30pm 36.8 33.9 12.3 23 15.0 SE 19 37 10 20 1014.7 1010.8 0.0
24/01:00pm 35.5 33.1 12.5 25 14.1 SE 17 28 9 15 1015.2 1011.4 0.0
24/12:30pm 34.9 32.5 12.5 25 13.7 SE 17 32 9 17 1015.9 1012.0 0.0
24/12:00pm 33.6 30.4 12.0 27 13.0 SE 20 30 11 16 1016.3 1012.4 0.0
24/11:30am 33.2 30.8 12.8 29 12.5 SSE 17 24 9 13 1016.7 1012.8 0.0
24/11:00am 31.5 28.3 11.8 30 11.8 SE 20 30 11 16 1017.1 1013.3 0.0
24/10:30am 30.9 27.7 11.8 31 11.4 SE 20 30 11 16 1017.5 1013.7 0.0
24/10:00am 30.2 27.2 10.7 30 11.4 SE 17 30 9 16 1017.8 1014.0 0.0
24/09:30am 29.4 25.8 10.5 31 11.0 SE 20 33 11 18 1018.1 1014.2 0.0
24/09:00am 28.2 22.8 9.5 31 10.6 SE 28 39 15 21 1018.4 1014.5 0.0
24/08:30am 27.1 22.9 9.9 34 9.8 SE 22 32 12 17 1018.3 1014.4 0.0
24/08:00am 26.2 21.8 9.1 34 9.5 SE 22 37 12 20 1018.2 1014.3 0.0
24/07:30am 24.9 21.2 10.0 39 8.4 SE 20 30 11 16 1018.1 1014.2 0.0
24/07:00am 23.6 20.9 10.3 43 7.5 SE 15 22 8 12 1017.8 1014.0 0.0
24/06:30am 22.1 20.4 11.2 50 6.2 SSE 11 19 6 10 1017.7 1013.9 0.0
24/06:00am 21.8 19.8 10.3 48 6.4 SE 11 19 6 10 1017.6 1013.8 0.0
24/05:30am 22.5 20.0 9.6 44 7.1 SE 13 20 7 11 1017.3 1013.5 0.0
24/05:00am 21.6 19.8 11.0 51 6.0 SE 11 15 6 8 1017.2 1013.4 0.0
24/04:30am 21.9 20.6 11.3 51 6.0 SSE 9 13 5 7 1017.0 1013.2 0.0
24/04:08am 22.4 20.5 9.2 43 7.2 SSE 9 13 5 7 1016.8 1012.9 0.0
24/04:00am 22.4 20.9 9.2 43 7.2 SSE 7 11 4 6 1016.7 1012.8 0.0
24/03:49am 22.9 21.5 9.0 41 7.6 SSE 6 9 3 5 1016.6 1012.7 0.0
24/03:30am 24.0 21.2 8.4 37 8.5 SE 13 19 7 10 1016.5 1012.6 0.0
24/03:00am 24.2 21.6 9.4 39 8.2 SE 13 19 7 10 1016.4 1012.5 0.0
24/02:30am 24.6 22.1 9.7 39 8.3 SE 13 19 7 10 1016.4 1012.5 0.0
24/02:00am 24.3 22.8 10.6 42 7.8 SE 9 11 5 6 1016.4 1012.5 0.0
24/01:30am 24.5 23.5 11.1 43 7.7 SSE 7 9 4 5 1016.6 1012.7 0.0
24/01:00am 25.5 23.7 9.3 36 9.0 SE 9 11 5 6 1016.7 1012.8 0.0
24/12:30am 25.6 24.5 9.8 37 8.9 ESE 6 7 3 4 1016.9 1013.0 0.0
24/12:00am 26.0 25.1 11.4 40 8.5 E 7 11 4 6 1017.0 1013.2 0.0
 
Date/Time
WST
Temp
°C
App
Temp
°C
Dew
Point
°C
Rel
Hum
%
Delta-T
°C
Wind Press
QNH
hPa
Press
MSL
hPa
Rain since
9am
mm
Dir  Spd
km/h
Gust
km/h
Spd
kts
Gust
kts
23/11:30pm 27.6 25.5 9.9 33 10.1 E 11 13 6 7 1017.1 1013.3 0.0
23/11:00pm 28.2 26.3 10.4 33 10.2 E 11 15 6 8 1017.1 1013.3 0.0
23/10:30pm 26.9 26.5 12.9 42 8.3 E 7 9 4 5 1017.2 1013.4 0.0
23/10:00pm 27.6 26.6 12.4 39 9.0 E 9 11 5 6 1017.3 1013.5 0.0
23/09:30pm 27.0 26.8 13.7 44 8.0 ESE 7 9 4 5 1017.1 1013.3 0.0
23/09:00pm 27.8 27.5 12.6 39 9.0 ESE 6 9 3 5 1017.0 1013.2 0.0
23/08:30pm 28.8 28.6 13.1 38 9.5 ESE 6 7 3 4 1016.7 1012.8 0.0
23/08:00pm 29.2 29.6 12.6 36 9.9 E 2 6 1 3 1016.5 1012.6 0.0
23/07:30pm 29.5 29.9 13.7 38 9.6 E 4 7 2 4 1016.0 1012.1 0.0
23/07:00pm 30.3 30.3 13.6 36 10.2 E 6 7 3 4 1015.5 1011.7 0.0
23/06:30pm 31.7 31.7 13.5 33 11.2 E 6 9 3 5 1015.3 1011.5 0.0
23/06:00pm 34.0 31.4 10.6 24 13.9 ESE 15 20 8 11 1015.0 1011.1 0.0
23/05:30pm 34.8 31.8 10.6 23 14.4 ESE 17 22 9 12 1014.5 1010.6 0.0
23/05:00pm 35.0 32.0 10.8 23 14.4 ESE 17 26 9 14 1014.3 1010.4 0.0
23/04:30pm 35.1 31.6 10.2 22 14.7 ESE 19 28 10 15 1014.0 1010.1 0.0
23/04:00pm 35.0 32.4 10.8 23 14.4 SE 15 24 8 13 1014.1 1010.2 0.0
23/03:30pm 34.9 32.1 11.3 24 14.2 ESE 17 26 9 14 1014.4 1010.5 0.0
23/03:00pm 34.9 32.3 12.0 25 13.9 SE 17 26 9 14 1014.6 1010.7 0.0
23/02:30pm 34.8 32.7 11.2 24 14.2 SSE 13 22 7 12 1015.0 1011.1 0.0
23/02:00pm 34.7 32.6 11.2 24 14.1 SSE 13 28 7 15 1015.4 1011.6 0.0
23/01:30pm 33.5 31.6 11.9 27 13.0 SE 13 24 7 13 1015.9 1012.0 0.0
23/01:00pm 33.5 30.8 10.2 24 13.7 ESE 15 22 8 12 1016.2 1012.3 0.0
23/12:30pm 32.2 29.1 10.3 26 12.8 ESE 17 26 9 14 1016.5 1012.6 0.0
23/12:00pm 31.7 28.8 9.8 26 12.7 ESE 15 24 8 13 1016.9 1013.0 0.0
23/11:30am 32.1 29.0 10.2 26 12.8 ESE 17 24 9 13 1017.3 1013.5 0.0
23/11:00am 31.5 28.4 10.2 27 12.4 ESE 17 26 9 14 1017.6 1013.8 0.0
23/10:30am 30.1 26.3 9.1 27 11.9 E 19 26 10 14 1018.0 1014.1 0.0
23/10:00am 28.1 25.8 11.6 36 9.7 ESE 15 22 8 12 1018.2 1014.3 0.0
23/09:30am 27.6 25.1 11.2 36 9.5 SE 15 24 8 13 1018.3 1014.4 0.0
23/09:00am 26.8 24.5 11.7 39 8.8 SE 15 22 8 12 1018.4 1014.5 0.0
23/08:30am 26.7 23.9 11.2 38 9.0 ESE 17 26 9 14 1018.3 1014.4 0.0
23/08:00am 26.0 22.9 11.7 41 8.3 ESE 19 24 10 13 1018.1 1014.2 0.0
23/07:30am 25.1 23.9 13.9 49 6.7 ESE 13 19 7 10 1017.6 1013.8 0.0
23/07:00am 24.0 22.4 13.8 53 6.1 ESE 15 19 8 10 1017.4 1013.6 0.0
23/06:30am 23.6 21.6 14.0 55 5.7 ESE 17 19 9 10 1016.9 1013.0 0.0
23/06:00am 23.8 22.5 13.6 52 6.1 ESE 13 17 7 9 1016.4 1012.5 0.0
23/05:30am 24.6 22.7 14.1 52 6.3 ESE 17 22 9 12 1015.8 1011.9 0.0
23/05:00am 25.0 23.4 15.0 53 6.1 E 17 20 9 11 1015.5 1011.7 0.0
23/04:30am 25.7 24.5 17.1 59 5.5 E 19 28 10 15 1015.3 1011.5 0.0
23/04:00am 25.3 25.3 19.0 68 4.1 ESE 17 20 9 11 1015.0 1011.1 0.0
23/03:30am 24.8 26.3 19.8 74 3.3 SE 11 19 6 10 1014.8 1010.9 0.0
23/03:00am 25.8 28.4 20.1 71 3.8 SE 6 9 3 5 1014.4 1010.5 0.0
23/02:30am 25.5 28.7 21.2 77 2.9 SW 6 6 3 3 1014.5 1010.6 0.0
23/02:00am 25.9 28.9 20.9 74 3.4 NW 6 9 3 5 1014.5 1010.6 0.0
23/01:30am 26.3 29.9 21.3 74 3.4 WNW 4 6 2 3 1014.5 1010.6 0.0
23/01:00am 26.3 30.0 21.5 75 3.2 S 4 7 2 4 1014.6 1010.7 0.0
23/12:30am 27.4 30.0 20.5 66 4.6 WSW 7 11 4 6 1014.6 1010.7 0.0
23/12:00am 27.9 31.0 20.2 63 5.1 WNW 4 4 2 2 1014.7 1010.8 0.0
 
Date/Time
WST
Temp
°C
App
Temp
°C
Dew
Point
°C
Rel
Hum
%
Delta-T
°C
Wind Press
QNH
hPa
Press
MSL
hPa
Rain since
9am
mm
Dir  Spd
km/h
Gust
km/h
Spd
kts
Gust
kts
22/11:30pm 28.1 32.1 21.4 67 4.5 NW 2 4 1 2 1014.8 1010.9 0.0
22/11:00pm 28.5 32.3 21.0 64 5.1 NW 2 6 1 3 1014.9 1011.0 0.0
22/10:30pm 29.0 32.1 19.6 57 6.2 NNE 2 2 1 1 1014.9 1011.0 0.0
22/10:00pm 29.8 33.2 20.9 59 6.0 ENE 4 6 2 3 1015.1 1011.3 0.0
22/09:30pm 29.8 32.7 19.8 55 6.7 E 4 6 2 3 1014.9 1011.0 0.0
22/09:00pm 30.1 33.3 19.8 54 6.9 NE 2 4 1 2 1014.7 1010.8 0.0
22/08:30pm 31.0 34.5 20.3 53 7.2 NNE 2 2 1 1 1014.5 1010.6 0.0
22/08:00pm 31.5 - 19.8 49 7.8 - - - - - 1014.4 1010.5 0.0
22/07:30pm 31.5 33.8 19.8 49 7.8 ENE 7 9 4 5 1014.1 1010.2 0.0

Other Formats:

Comma delimited format used in spreadsheet applications
http://www.bom.gov.au/fwo/IDW60801/IDW60801.99736.axf

JavaScript Object Notation format (JSON) in row-major order
http://www.bom.gov.au/fwo/IDW60801/IDW60801.99736.json